createdAt,value
2017-08-25T00:01:16.227Z,14.60
2017-08-25T00:03:45.045Z,14.60
2017-08-25T00:06:14.258Z,14.60
2017-08-25T00:08:42.794Z,14.60
2017-08-25T00:11:11.625Z,14.60
2017-08-25T00:13:40.784Z,14.50
2017-08-25T00:16:09.227Z,14.50
2017-08-25T00:18:37.617Z,14.40
2017-08-25T00:21:06.575Z,14.40
2017-08-25T00:23:35.290Z,14.40
2017-08-25T00:26:03.680Z,14.40
2017-08-25T00:28:32.162Z,14.40
2017-08-25T00:31:00.603Z,14.40
2017-08-25T00:33:29.082Z,14.40
2017-08-25T00:35:57.934Z,14.30
2017-08-25T00:38:26.347Z,14.20
2017-08-25T00:40:54.784Z,14.20
2017-08-25T00:43:23.228Z,14.30
2017-08-25T00:45:51.629Z,14.40
2017-08-25T00:48:20.117Z,14.30
2017-08-25T00:50:48.562Z,14.20
2017-08-25T00:53:16.980Z,14.20
2017-08-25T00:55:45.485Z,14.10
2017-08-25T00:58:13.878Z,14.10
2017-08-25T01:00:43.029Z,14.10
2017-08-25T01:03:11.522Z,14.10
2017-08-25T01:05:40.456Z,14.10
2017-08-25T01:08:08.866Z,14.20
2017-08-25T01:10:37.344Z,14.10
2017-08-25T01:13:05.821Z,14.10
2017-08-25T01:15:34.639Z,14.00
2017-08-25T01:18:03.101Z,14.00
2017-08-25T01:20:31.532Z,14.00
2017-08-25T01:23:01.738Z,13.80
2017-08-25T01:25:30.755Z,13.80
2017-08-25T01:27:59.966Z,13.70
2017-08-25T01:30:28.396Z,13.70
2017-08-25T01:32:56.882Z,13.70
2017-08-25T01:35:25.309Z,13.60
2017-08-25T01:37:53.748Z,13.60
2017-08-25T01:40:22.238Z,13.50
2017-08-25T01:42:51.147Z,13.40
2017-08-25T01:45:19.575Z,13.40
2017-08-25T01:47:48.110Z,13.50
2017-08-25T01:50:16.596Z,13.60
2017-08-25T01:52:45.069Z,13.60
2017-08-25T01:55:13.599Z,13.60
2017-08-25T01:57:42.063Z,13.70
2017-08-25T02:00:10.826Z,13.70
2017-08-25T02:02:39.370Z,13.70
2017-08-25T02:05:07.823Z,13.70
2017-08-25T02:07:36.269Z,13.70
2017-08-25T02:10:04.698Z,13.70
2017-08-25T02:12:33.392Z,13.70
2017-08-25T02:15:02.319Z,13.60
2017-08-25T02:17:31.062Z,13.60
2017-08-25T02:19:59.514Z,13.50
2017-08-25T02:22:27.988Z,13.60
2017-08-25T02:24:56.780Z,13.60
2017-08-25T02:27:25.215Z,13.60
2017-08-25T02:29:53.661Z,13.60
2017-08-25T02:32:22.077Z,13.60
2017-08-25T02:34:51.220Z,13.60
2017-08-25T02:37:20.066Z,13.60
2017-08-25T02:39:49.260Z,13.60
2017-08-25T02:42:17.755Z,13.60
2017-08-25T02:44:46.221Z,13.60
2017-08-25T02:47:14.616Z,13.50
2017-08-25T02:49:43.024Z,13.50
2017-08-25T02:52:11.502Z,13.30
2017-08-25T02:54:39.948Z,13.30
2017-08-25T02:57:09.159Z,13.30
2017-08-25T02:59:37.595Z,13.20
2017-08-25T03:02:05.992Z,13.20
2017-08-25T03:04:34.415Z,13.20
2017-08-25T03:07:03.648Z,13.20
2017-08-25T03:09:32.053Z,13.20
2017-08-25T03:12:00.534Z,13.20
2017-08-25T03:14:28.928Z,13.10
2017-08-25T03:16:58.095Z,13.10
2017-08-25T03:19:26.543Z,13.10
2017-08-25T03:21:54.950Z,13.10
2017-08-25T03:24:23.401Z,13.10
2017-08-25T03:26:51.817Z,13.10
2017-08-25T03:29:20.226Z,13.00
2017-08-25T03:31:48.708Z,13.00
2017-08-25T03:34:17.108Z,13.00
2017-08-25T03:36:45.549Z,13.10
2017-08-25T03:39:15.195Z,13.00
2017-08-25T03:41:44.053Z,12.90
2017-08-25T03:44:13.283Z,12.80
2017-08-25T03:46:41.701Z,12.80
2017-08-25T03:49:10.099Z,12.90
2017-08-25T03:51:38.542Z,12.90
2017-08-25T03:54:06.918Z,13.00
2017-08-25T03:56:35.334Z,12.90
2017-08-25T03:59:03.814Z,12.90
2017-08-25T04:01:32.261Z,12.90
2017-08-25T04:04:00.724Z,12.80
2017-08-25T04:06:29.151Z,12.80
2017-08-25T04:08:57.603Z,12.90
2017-08-25T04:11:26.029Z,12.90
2017-08-25T04:13:54.893Z,12.90
2017-08-25T04:16:23.414Z,12.80
2017-08-25T04:18:51.829Z,12.70
2017-08-25T04:21:20.234Z,12.80
2017-08-25T04:23:49.034Z,12.80
2017-08-25T04:26:17.524Z,12.80
2017-08-25T04:28:45.964Z,12.70
2017-08-25T04:31:14.477Z,12.70
2017-08-25T04:33:42.924Z,12.70
2017-08-25T04:36:11.320Z,12.60
2017-08-25T04:38:39.828Z,12.60
2017-08-25T04:41:08.230Z,12.70
2017-08-25T04:43:36.659Z,12.70
2017-08-25T04:46:05.566Z,12.70
2017-08-25T04:48:34.459Z,12.70
2017-08-25T04:51:03.442Z,12.70
2017-08-25T04:53:31.949Z,12.80
2017-08-25T04:56:00.386Z,12.90
2017-08-25T04:58:28.852Z,12.90
2017-08-25T05:00:57.267Z,12.90
2017-08-25T05:03:25.819Z,12.90
2017-08-25T05:05:54.254Z,12.90
2017-08-25T05:08:23.428Z,13.00
2017-08-25T05:10:53.130Z,13.00
2017-08-25T05:13:21.578Z,13.00
2017-08-25T05:15:50.799Z,13.10
2017-08-25T05:18:19.950Z,13.10
2017-08-25T05:20:48.414Z,13.20
2017-08-25T05:23:17.200Z,13.30
2017-08-25T05:25:45.735Z,13.40
2017-08-25T05:28:14.173Z,13.30
2017-08-25T05:30:42.666Z,13.40
2017-08-25T05:33:11.129Z,13.40
2017-08-25T05:35:39.626Z,13.40
2017-08-25T05:38:08.484Z,13.30
2017-08-25T05:40:36.880Z,13.20
2017-08-25T05:43:06.366Z,13.20
2017-08-25T05:45:34.898Z,13.20
2017-08-25T05:48:03.851Z,13.20
2017-08-25T05:50:33.283Z,13.30
2017-08-25T05:53:01.682Z,13.40
2017-08-25T05:55:30.226Z,13.60
2017-08-25T05:57:59.714Z,13.80
2017-08-25T06:00:28.637Z,14.10
2017-08-25T06:02:57.502Z,14.10
2017-08-25T06:05:26.034Z,14.20
2017-08-25T06:07:54.427Z,14.20
2017-08-25T06:10:22.890Z,14.00
2017-08-25T06:12:52.569Z,13.90
2017-08-25T06:15:21.244Z,13.90
2017-08-25T06:17:49.649Z,14.40
2017-08-25T06:20:18.099Z,14.60
2017-08-25T06:22:47.092Z,14.60
2017-08-25T06:25:15.934Z,14.50
2017-08-25T06:27:44.417Z,14.30
2017-08-25T06:30:13.512Z,14.30
2017-08-25T06:32:41.956Z,14.40
2017-08-25T06:35:10.780Z,14.70
2017-08-25T06:37:39.261Z,14.80
2017-08-25T06:40:07.742Z,15.00
2017-08-25T06:42:36.218Z,15.10
2017-08-25T06:45:05.027Z,14.90
2017-08-25T06:47:33.477Z,14.70
2017-08-25T06:50:02.798Z,14.60
2017-08-25T06:52:31.970Z,14.60
2017-08-25T06:55:02.117Z,14.50
2017-08-25T06:57:31.071Z,14.50
2017-08-25T06:59:59.853Z,14.50
2017-08-25T07:02:28.381Z,14.60
2017-08-25T07:04:56.894Z,14.70
2017-08-25T07:07:26.174Z,15.00
2017-08-25T07:09:55.692Z,15.10
2017-08-25T07:12:25.575Z,15.50
2017-08-25T07:14:54.108Z,15.40
2017-08-25T07:17:22.572Z,15.80
2017-08-25T07:19:51.865Z,15.80
2017-08-25T07:22:20.804Z,15.80
2017-08-25T07:24:49.350Z,15.40
2017-08-25T07:27:18.659Z,15.90
2017-08-25T07:29:47.140Z,15.90
2017-08-25T07:32:16.888Z,16.40
2017-08-25T07:34:45.972Z,16.70
2017-08-25T07:37:14.686Z,17.30
2017-08-25T07:39:43.924Z,17.80
2017-08-25T07:42:12.374Z,17.90
2017-08-25T07:44:41.147Z,17.70
2017-08-25T07:47:10.151Z,17.70
2017-08-25T07:49:40.175Z,17.60
2017-08-25T07:52:08.755Z,17.70
2017-08-25T07:54:37.224Z,18.10
2017-08-25T07:57:06.095Z,18.20
2017-08-25T07:59:34.908Z,18.20
2017-08-25T08:02:03.327Z,17.80
2017-08-25T08:04:31.809Z,17.50
2017-08-25T08:07:00.654Z,17.80
2017-08-25T08:09:30.449Z,19.00
2017-08-25T08:11:58.963Z,19.00
2017-08-25T08:14:27.917Z,19.00
2017-08-25T08:16:56.907Z,18.80
2017-08-25T08:19:25.360Z,18.70
2017-08-25T08:21:53.785Z,18.60
2017-08-25T08:24:22.390Z,19.00
2017-08-25T08:26:50.809Z,19.90
2017-08-25T08:29:21.093Z,19.90
2017-08-25T08:31:49.566Z,20.40
2017-08-25T08:34:19.095Z,20.30
2017-08-25T08:36:48.034Z,20.40
2017-08-25T08:39:16.492Z,20.70
2017-08-25T08:41:48.925Z,20.70
2017-08-25T08:44:20.880Z,20.80
2017-08-25T08:46:49.461Z,21.00
2017-08-25T08:49:17.880Z,20.90
2017-08-25T08:51:46.318Z,20.80
2017-08-25T08:54:16.542Z,20.90
2017-08-25T08:56:45.432Z,21.10
2017-08-25T08:59:14.468Z,21.70
2017-08-25T09:01:43.369Z,21.80
2017-08-25T09:04:11.782Z,22.90
2017-08-25T09:06:41.471Z,23.20
2017-08-25T09:09:11.646Z,23.10
2017-08-25T09:11:40.979Z,22.70
2017-08-25T09:14:10.070Z,22.40
2017-08-25T09:16:46.235Z,22.20
2017-08-25T09:19:16.613Z,22.30
2017-08-25T09:21:46.731Z,23.30
2017-08-25T09:24:15.621Z,23.20
2017-08-25T09:26:45.989Z,23.00
2017-08-25T09:29:14.478Z,23.00
2017-08-25T09:31:43.279Z,22.70
2017-08-25T09:34:12.573Z,23.20
2017-08-25T09:36:41.064Z,23.30
2017-08-25T09:39:09.507Z,23.50
2017-08-25T09:41:37.965Z,23.70
2017-08-25T09:44:07.317Z,24.40
2017-08-25T09:46:36.265Z,24.80
2017-08-25T09:49:04.746Z,24.30
2017-08-25T09:51:34.030Z,24.60
2017-08-25T09:54:04.249Z,24.50
2017-08-25T09:56:32.820Z,24.30
2017-08-25T09:59:03.577Z,24.80
2017-08-25T10:01:32.924Z,24.30
2017-08-25T10:04:01.757Z,24.80
2017-08-25T10:06:31.007Z,25.60
2017-08-25T10:09:00.099Z,25.70
2017-08-25T10:11:28.587Z,24.90
2017-08-25T10:13:57.076Z,25.50
2017-08-25T10:16:26.505Z,25.30
2017-08-25T10:18:55.293Z,25.00
2017-08-25T10:21:23.811Z,25.60
2017-08-25T10:23:53.074Z,26.40
2017-08-25T10:26:22.738Z,26.10
2017-08-25T10:28:52.824Z,26.10
2017-08-25T10:31:21.249Z,26.10
2017-08-25T10:33:50.301Z,25.90
2017-08-25T10:36:31.281Z,26.60
2017-08-25T10:39:11.395Z,26.60
2017-08-25T10:41:52.090Z,26.90
2017-08-25T10:44:32.719Z,26.70
2017-08-25T10:47:02.081Z,27.00
2017-08-25T10:49:32.530Z,26.20
2017-08-25T10:52:01.520Z,26.10
2017-08-25T10:54:30.944Z,26.10
2017-08-25T10:56:59.493Z,27.30
2017-08-25T10:59:27.976Z,27.60
2017-08-25T11:01:57.094Z,26.70
2017-08-25T11:04:25.933Z,26.50
2017-08-25T11:06:56.098Z,26.70
2017-08-25T11:09:26.089Z,26.50
2017-08-25T11:11:55.431Z,26.30
2017-08-25T11:14:24.199Z,26.30
2017-08-25T11:16:53.690Z,26.20
2017-08-25T11:19:23.233Z,26.00
2017-08-25T11:21:52.218Z,26.30
2017-08-25T11:24:21.381Z,26.60
2017-08-25T11:26:56.169Z,27.40
2017-08-25T11:29:24.723Z,27.30
2017-08-25T11:31:53.216Z,27.30
2017-08-25T11:34:22.110Z,27.60
2017-08-25T11:36:51.305Z,27.80
2017-08-25T11:39:20.550Z,27.80
2017-08-25T11:41:51.865Z,27.30
2017-08-25T11:44:22.036Z,28.10
2017-08-25T11:46:50.605Z,28.20
2017-08-25T11:49:19.036Z,28.10
2017-08-25T11:51:48.117Z,27.60
2017-08-25T11:54:17.523Z,27.60
2017-08-25T11:56:45.937Z,27.20
2017-08-25T11:59:14.491Z,27.40
2017-08-25T12:01:43.056Z,27.60
2017-08-25T12:04:12.643Z,27.30
2017-08-25T12:06:41.832Z,26.80
2017-08-25T12:09:10.263Z,26.80
2017-08-25T12:11:39.503Z,26.70
2017-08-25T12:14:09.072Z,26.60
2017-08-25T12:16:37.656Z,26.80
2017-08-25T12:19:06.101Z,27.90
2017-08-25T12:21:34.630Z,27.20
2017-08-25T12:24:04.298Z,26.60
2017-08-25T12:26:34.128Z,26.50
2017-08-25T12:29:06.319Z,26.90
2017-08-25T12:31:34.781Z,27.40
2017-08-25T12:34:03.273Z,27.00
2017-08-25T12:36:31.829Z,27.20
2017-08-25T12:39:01.292Z,27.60
2017-08-25T12:41:30.138Z,27.70
2017-08-25T12:44:00.356Z,28.40
2017-08-25T12:46:28.925Z,27.90
2017-08-25T12:48:58.238Z,28.10
2017-08-25T12:51:27.508Z,26.60
2017-08-25T12:53:55.975Z,26.60
2017-08-25T12:56:24.409Z,27.20
2017-08-25T12:58:54.646Z,28.10
2017-08-25T13:01:23.116Z,28.30
2017-08-25T13:03:52.282Z,28.10
2017-08-25T13:06:22.642Z,27.70
2017-08-25T13:08:53.040Z,28.30
2017-08-25T13:11:21.436Z,28.30
2017-08-25T13:13:49.962Z,28.60
2017-08-25T13:16:22.479Z,28.20
2017-08-25T13:18:51.764Z,27.90
2017-08-25T13:21:21.272Z,27.80
2017-08-25T13:23:50.533Z,28.00
2017-08-25T13:26:19.361Z,27.90
2017-08-25T13:28:48.372Z,27.90
2017-08-25T13:31:18.320Z,27.50
2017-08-25T13:33:47.418Z,27.50
2017-08-25T13:36:15.897Z,27.20
2017-08-25T13:38:44.428Z,27.10
2017-08-25T13:41:13.837Z,26.90
2017-08-25T13:43:43.476Z,26.60
2017-08-25T13:46:11.970Z,26.50
2017-08-25T13:48:42.197Z,27.40
2017-08-25T13:51:12.395Z,27.70
2017-08-25T13:53:42.465Z,28.40
2017-08-25T13:56:11.707Z,28.60
2017-08-25T13:58:40.291Z,28.40
2017-08-25T14:01:10.142Z,28.50
2017-08-25T14:03:39.498Z,28.20
2017-08-25T14:06:08.435Z,27.40
2017-08-25T14:08:38.294Z,27.00
2017-08-25T14:11:08.126Z,27.40
2017-08-25T14:13:37.502Z,27.30
2017-08-25T14:16:06.370Z,27.30
2017-08-25T14:18:34.811Z,27.30
2017-08-25T14:21:04.085Z,27.80
2017-08-25T14:23:33.308Z,27.40
2017-08-25T14:26:01.812Z,27.40
2017-08-25T14:28:31.009Z,27.70
2017-08-25T14:31:00.502Z,27.30
2017-08-25T14:33:29.364Z,26.70
2017-08-25T14:35:58.896Z,26.50
2017-08-25T14:38:29.565Z,26.20
2017-08-25T14:40:58.123Z,26.30
2017-08-25T14:43:27.788Z,26.30
2017-08-25T14:46:00.761Z,27.00
2017-08-25T14:48:29.383Z,26.90
2017-08-25T14:50:58.605Z,26.70
2017-08-25T14:53:28.762Z,26.50
2017-08-25T14:55:57.851Z,26.20
2017-08-25T14:58:27.069Z,26.40
2017-08-25T15:00:55.931Z,26.10
2017-08-25T15:03:27.450Z,26.40
2017-08-25T15:05:56.831Z,26.90
2017-08-25T15:08:28.462Z,27.40
2017-08-25T15:10:57.428Z,27.40
2017-08-25T15:13:26.362Z,27.10
2017-08-25T15:15:54.896Z,26.80
2017-08-25T15:18:24.237Z,26.70
2017-08-25T15:20:52.663Z,26.70
2017-08-25T15:23:22.894Z,26.70
2017-08-25T15:25:55.325Z,27.00
2017-08-25T15:28:23.761Z,27.00
2017-08-25T15:30:52.716Z,26.90
2017-08-25T15:33:21.737Z,26.90
2017-08-25T15:35:50.157Z,26.80
2017-08-25T15:38:18.663Z,26.60
2017-08-25T15:40:47.089Z,26.80
2017-08-25T15:43:15.547Z,26.70
2017-08-25T15:45:44.775Z,26.80
2017-08-25T15:48:14.606Z,26.80
2017-08-25T15:50:44.034Z,26.90
2017-08-25T15:53:12.605Z,26.50
2017-08-25T15:55:41.080Z,26.40
2017-08-25T15:58:09.606Z,26.20
2017-08-25T16:00:38.067Z,26.20
2017-08-25T16:03:06.537Z,26.30
2017-08-25T16:05:35.383Z,26.20
2017-08-25T16:08:05.023Z,25.80
2017-08-25T16:10:33.487Z,25.80
2017-08-25T16:13:02.001Z,25.60
2017-08-25T16:15:30.814Z,25.50
2017-08-25T16:17:59.958Z,25.50
2017-08-25T16:20:28.682Z,25.40
2017-08-25T16:22:57.486Z,25.30
2017-08-25T16:25:26.621Z,25.30
2017-08-25T16:27:57.085Z,25.20
2017-08-25T16:30:26.462Z,25.20
2017-08-25T16:32:55.026Z,25.20
2017-08-25T16:35:23.874Z,25.00
2017-08-25T16:37:53.158Z,24.90
2017-08-25T16:40:22.195Z,24.80
2017-08-25T16:42:54.157Z,24.80
2017-08-25T16:45:23.005Z,24.80
2017-08-25T16:47:52.039Z,24.80
2017-08-25T16:50:20.458Z,24.70
2017-08-25T16:52:49.961Z,24.50
2017-08-25T16:55:18.812Z,24.60
2017-08-25T16:57:47.193Z,24.60
2017-08-25T17:00:15.596Z,24.50
2017-08-25T17:02:45.813Z,24.20
2017-08-25T17:05:15.002Z,24.30
2017-08-25T17:07:43.527Z,24.20
2017-08-25T17:10:12.599Z,23.90
2017-08-25T17:12:41.026Z,23.60
2017-08-25T17:15:09.517Z,23.30
2017-08-25T17:17:37.939Z,23.00
2017-08-25T17:20:06.569Z,22.70
2017-08-25T17:22:35.048Z,22.00
2017-08-25T17:25:03.564Z,21.50
2017-08-25T17:27:32.199Z,21.10
2017-08-25T17:30:00.690Z,20.50
2017-08-25T17:32:29.212Z,20.20
2017-08-25T17:34:57.591Z,20.10
2017-08-25T17:37:25.999Z,19.90
2017-08-25T17:39:54.476Z,19.60
2017-08-25T17:42:22.922Z,19.60
2017-08-25T17:44:51.346Z,19.50
2017-08-25T17:47:19.818Z,19.60
2017-08-25T17:49:48.693Z,19.50
2017-08-25T17:52:17.153Z,19.60
2017-08-25T17:54:45.698Z,19.50
2017-08-25T17:57:14.141Z,19.50
2017-08-25T17:59:42.606Z,19.50
2017-08-25T18:02:11.469Z,19.50
2017-08-25T18:04:40.159Z,19.50
2017-08-25T18:07:09.040Z,19.50
2017-08-25T18:09:37.504Z,19.40
2017-08-25T18:12:06.013Z,19.40
2017-08-25T18:14:35.007Z,19.40
2017-08-25T18:17:04.294Z,19.50
2017-08-25T18:19:32.686Z,19.40
2017-08-25T18:22:01.132Z,19.40
2017-08-25T18:24:29.557Z,19.40
2017-08-25T18:26:58.458Z,19.20
2017-08-25T18:29:26.971Z,19.10
2017-08-25T18:31:56.054Z,19.10
2017-08-25T18:34:24.501Z,19.10
2017-08-25T18:39:26.362Z,19.20
2017-08-25T18:41:54.790Z,19.30
2017-08-25T18:44:23.216Z,19.30
2017-08-25T18:46:52.912Z,19.20
2017-08-25T18:49:21.351Z,19.10
2017-08-25T18:51:49.772Z,19.00
2017-08-25T18:54:18.272Z,18.90
2017-08-25T18:56:47.480Z,19.00
2017-08-25T18:59:16.001Z,18.90
2017-08-25T19:01:44.835Z,19.00
2017-08-25T19:04:13.261Z,19.10
2017-08-25T19:06:41.733Z,19.00
2017-08-25T19:09:10.180Z,18.90
2017-08-25T19:11:39.518Z,18.90
2017-08-25T19:14:08.948Z,18.90
2017-08-25T19:16:37.360Z,18.80
2017-08-25T19:19:05.962Z,18.90
2017-08-25T19:21:35.185Z,18.70
2017-08-25T19:24:04.649Z,18.70
2017-08-25T19:26:33.969Z,18.70
2017-08-25T19:29:02.706Z,18.60
2017-08-25T19:31:31.136Z,18.60
2017-08-25T19:34:00.746Z,18.60
2017-08-25T19:36:29.994Z,18.60
2017-08-25T19:38:59.339Z,18.50
2017-08-25T19:41:27.746Z,18.50
2017-08-25T19:43:57.455Z,18.40
2017-08-25T19:46:25.851Z,18.40
2017-08-25T19:48:54.716Z,18.40
2017-08-25T19:51:23.288Z,18.30
2017-08-25T19:53:52.663Z,18.20
2017-08-25T19:56:21.528Z,18.20
2017-08-25T19:58:49.987Z,18.10
2017-08-25T20:01:18.449Z,18.00
2017-08-25T20:03:46.953Z,18.10
2017-08-25T20:06:15.713Z,18.20
2017-08-25T20:08:44.571Z,18.10
2017-08-25T20:11:13.067Z,18.10
2017-08-25T20:13:41.955Z,18.10
2017-08-25T20:16:10.715Z,18.10
2017-08-25T20:18:39.169Z,17.90
2017-08-25T20:21:07.619Z,18.00
2017-08-25T20:23:36.790Z,17.90
2017-08-25T20:26:05.365Z,17.90
2017-08-25T20:28:33.849Z,17.80
2017-08-25T20:31:02.659Z,17.80
2017-08-25T20:33:31.945Z,17.80
2017-08-25T20:36:01.588Z,17.80
2017-08-25T20:38:30.079Z,17.80
2017-08-25T20:40:58.513Z,17.80
2017-08-25T20:43:26.951Z,17.80
2017-08-25T20:45:57.221Z,17.60
2017-08-25T20:48:25.645Z,17.60
2017-08-25T20:50:54.137Z,17.60
2017-08-25T20:53:22.543Z,17.70
2017-08-25T20:55:51.027Z,17.70
2017-08-25T20:58:19.899Z,17.70
2017-08-25T21:00:48.654Z,17.60
2017-08-25T21:03:17.102Z,17.60
2017-08-25T21:05:45.561Z,17.60
2017-08-25T21:08:15.332Z,17.60
2017-08-25T21:10:43.757Z,17.60
2017-08-25T21:13:12.182Z,17.60
2017-08-25T21:15:41.347Z,17.60
2017-08-25T21:18:09.814Z,17.60
2017-08-25T21:20:38.696Z,17.60
2017-08-25T21:23:07.074Z,17.50
2017-08-25T21:25:36.683Z,17.40
2017-08-25T21:28:05.655Z,17.40
2017-08-25T21:30:34.125Z,17.40
2017-08-25T21:33:02.606Z,17.30
2017-08-25T21:35:31.081Z,17.30
2017-08-25T21:37:59.497Z,17.30
2017-08-25T21:40:27.890Z,17.30
2017-08-25T21:42:56.717Z,17.40
2017-08-25T21:45:25.133Z,17.40
2017-08-25T21:47:53.781Z,17.30
2017-08-25T21:50:22.282Z,17.30
2017-08-25T21:52:51.022Z,17.30
2017-08-25T21:55:20.239Z,17.30
2017-08-25T21:57:48.708Z,17.30
2017-08-25T22:00:17.593Z,17.40
2017-08-25T22:02:46.795Z,17.30
2017-08-25T22:05:15.746Z,17.30
2017-08-25T22:07:44.262Z,17.40
2017-08-25T22:10:12.717Z,17.40
2017-08-25T22:12:41.092Z,17.40
2017-08-25T22:15:10.300Z,17.40
2017-08-25T22:17:39.096Z,17.40
2017-08-25T22:20:08.481Z,17.40
2017-08-25T22:22:36.900Z,17.40
2017-08-25T22:25:05.306Z,17.30
2017-08-25T22:27:34.240Z,17.30
2017-08-25T22:30:03.070Z,17.40
2017-08-25T22:32:31.977Z,17.30
2017-08-25T22:35:00.383Z,17.40
2017-08-25T22:37:28.778Z,17.30
2017-08-25T22:39:57.613Z,17.40
2017-08-25T22:42:26.019Z,17.50
2017-08-25T22:44:54.419Z,17.50
2017-08-25T22:47:22.889Z,17.50
2017-08-25T22:49:51.327Z,17.50
2017-08-25T22:52:20.090Z,17.40
2017-08-25T22:54:48.460Z,17.40
2017-08-25T22:57:16.952Z,17.40
2017-08-25T22:59:46.306Z,17.30
2017-08-25T23:02:15.050Z,17.30
2017-08-25T23:04:43.501Z,17.30
2017-08-25T23:07:12.330Z,17.40
2017-08-25T23:09:40.740Z,17.30
2017-08-25T23:12:09.167Z,17.40
2017-08-25T23:14:37.997Z,17.40
2017-08-25T23:17:06.443Z,17.40
2017-08-25T23:19:34.843Z,17.40
2017-08-25T23:22:04.012Z,17.30
2017-08-25T23:24:32.496Z,17.30
2017-08-25T23:27:00.873Z,17.30
2017-08-25T23:29:30.093Z,17.20
2017-08-25T23:31:58.502Z,17.20
2017-08-25T23:34:26.961Z,17.20
2017-08-25T23:36:56.134Z,17.20
2017-08-25T23:39:24.868Z,17.20
2017-08-25T23:41:53.314Z,17.20
2017-08-25T23:44:21.743Z,17.20
2017-08-25T23:46:50.166Z,17.30
2017-08-25T23:49:18.590Z,17.30
2017-08-25T23:51:47.017Z,17.40
2017-08-25T23:54:16.250Z,17.40
2017-08-25T23:56:45.511Z,17.40
2017-08-25T23:59:15.116Z,17.40
